Time;durP1;ratioP1;P1;durP2;ratioP2;P2;SDS_P1;SDS_P2;PMS_P1;PMS_P2;Temp;Humidity;BMP_temperature;BMP_pressure;BME280_temperature;BME280_humidity;BME280_pressure;Samples;Min_cycle;Max_cycle;Signal;HPM_P1;HPM_P2
2023/05/07 00:00:48;;;;;;;5.70;5.10;;;;;;;15.92;100.00;101508.56;5233650;28;20028;-71
2023/05/07 00:03:20;;;;;;;6.40;5.05;;;;;;;16.02;100.00;101507.53;5233729;28;20055;-72
2023/05/07 00:05:52;;;;;;;5.53;4.38;;;;;;;16.10;100.00;101513.88;5233925;28;20025;-72
2023/05/07 00:08:24;;;;;;;5.85;5.05;;;;;;;16.00;100.00;101514.78;5239644;28;20906;-72
2023/05/07 00:10:55;;;;;;;5.57;4.78;;;;;;;16.02;100.00;101504.03;5239795;28;20028;-71
2023/05/07 00:13:27;;;;;;;8.43;4.60;;;;;;;16.09;100.00;101509.56;5212956;28;20036;-71
2023/05/07 00:15:58;;;;;;;4.80;4.05;;;;;;;16.09;100.00;101502.47;5237471;28;20460;-71
2023/05/07 00:18:30;;;;;;;6.97;4.30;;;;;;;16.00;100.00;101495.44;5233380;28;20120;-71
2023/05/07 00:21:01;;;;;;;4.97;4.22;;;;;;;16.00;100.00;101504.19;5236884;28;20018;-71
2023/05/07 00:23:32;;;;;;;5.25;4.30;;;;;;;16.01;100.00;101490.00;5237125;28;20033;-71
2023/05/07 00:26:04;;;;;;;5.43;4.35;;;;;;;16.11;100.00;101491.75;5230411;28;20021;-72
2023/05/07 00:28:35;;;;;;;4.93;4.05;;;;;;;16.16;100.00;101492.94;5234698;28;20033;-71
2023/05/07 00:31:06;;;;;;;5.35;4.20;;;;;;;16.14;100.00;101492.28;5227083;28;20037;-72
2023/05/07 00:33:38;;;;;;;5.70;4.47;;;;;;;16.08;100.00;101492.06;5233084;28;20348;-72
2023/05/07 00:36:10;;;;;;;4.32;3.92;;;;;;;16.00;100.00;101490.97;5236879;28;20637;-71
2023/05/07 00:38:41;;;;;;;5.40;4.82;;;;;;;16.01;100.00;101489.16;5239771;28;20049;-71
2023/05/07 00:41:12;;;;;;;4.50;4.10;;;;;;;16.11;100.00;101487.31;5237250;28;20032;-72
2023/05/07 00:43:44;;;;;;;5.05;4.55;;;;;;;16.11;100.00;101487.31;5235991;28;20036;-72
2023/05/07 00:46:15;;;;;;;5.40;4.90;;;;;;;16.11;100.00;101489.13;5234659;28;20103;-71
2023/05/07 00:48:47;;;;;;;6.40;4.88;;;;;;;16.07;100.00;101485.94;5232708;28;20201;-72
2023/05/07 00:51:19;;;;;;;5.68;4.35;;;;;;;16.12;100.00;101482.84;5234084;28;20033;-71
2023/05/07 00:53:51;;;;;;;5.05;4.55;;;;;;;16.05;100.00;101482.59;5235423;28;20030;-72
2023/05/07 00:56:23;;;;;;;5.32;4.82;;;;;;;16.06;100.00;101473.69;5213608;28;20033;-72
2023/05/07 00:58:55;;;;;;;6.25;4.75;;;;;;;16.09;100.00;101478.66;5235814;28;20022;-72
2023/05/07 01:01:26;;;;;;;6.80;4.80;;;;;;;16.08;100.00;101484.94;5230686;28;20386;-72
2023/05/07 01:03:57;;;;;;;5.63;4.65;;;;;;;16.15;100.00;101488.66;5236782;28;20029;-73
2023/05/07 01:06:30;;;;;;;6.03;5.00;;;;;;;16.11;100.00;101482.00;5235524;28;20024;-72
2023/05/07 01:09:01;;;;;;;5.85;5.13;;;;;;;16.10;100.00;101479.50;5232930;28;20082;-72
2023/05/07 01:11:33;;;;;;;6.53;5.72;;;;;;;16.12;100.00;101474.91;5232801;28;20033;-72
2023/05/07 01:14:05;;;;;;;6.25;5.28;;;;;;;16.14;100.00;101483.50;5231704;28;20061;-72
2023/05/07 01:16:37;;;;;;;6.15;5.50;;;;;;;16.07;100.00;101483.28;5237893;28;20032;-72
2023/05/07 01:19:10;;;;;;;5.68;5.18;;;;;;;16.05;100.00;101478.13;5237404;28;20400;-72
2023/05/07 01:21:46;;;;;;;6.50;5.53;;;;;;;16.07;100.00;101479.81;5235202;28;20032;-72
2023/05/07 01:24:18;;;;;;;6.45;5.45;;;;;;;15.99;100.00;101475.28;5234938;28;20132;-72
2023/05/07 01:26:49;;;;;;;6.45;5.75;;;;;;;16.02;100.00;101467.91;5238016;28;20028;-72
2023/05/07 01:29:20;;;;;;;8.20;5.97;;;;;;;16.02;100.00;101456.47;5235834;28;20079;-72
2023/05/07 01:31:52;;;;;;;6.85;6.25;;;;;;;16.02;100.00;101454.69;5239947;28;20466;-72
2023/05/07 01:34:26;;;;;;;8.32;6.50;;;;;;;16.07;100.00;101451.56;5235117;28;20087;-72
2023/05/07 01:36:59;;;;;;;7.65;6.80;;;;;;;16.05;100.00;101445.59;5239304;28;20037;-72
2023/05/07 01:39:32;;;;;;;8.15;7.45;;;;;;;16.03;100.00;101442.28;5238236;28;20021;-72
2023/05/07 01:42:03;;;;;;;;;;;;;;;16.74;100.00;101455.44;5237738;28;20044;-72
2023/05/07 01:44:34;;;;;;;8.47;7.40;;;;;;;16.04;100.00;101454.50;5220506;28;20299;-73
2023/05/07 01:47:06;;;;;;;12.45;8.38;;;;;;;16.01;100.00;101450.34;5237124;28;20304;-72
2023/05/07 01:49:37;;;;;;;9.88;8.40;;;;;;;16.01;100.00;101446.88;5238051;28;20029;-72
2023/05/07 01:52:11;;;;;;;10.48;9.38;;;;;;;16.07;100.00;101454.22;5241113;28;20031;-73
2023/05/07 01:54:42;;;;;;;9.95;9.05;;;;;;;15.98;100.00;101452.47;5239425;28;20025;-72
2023/05/07 01:57:13;;;;;;;10.00;9.10;;;;;;;15.95;100.00;101443.03;5220040;28;20675;-72
2023/05/07 01:59:45;;;;;;;10.85;9.60;;;;;;;15.95;100.00;101436.94;5235788;28;20414;-72
2023/05/07 02:02:16;;;;;;;9.70;8.80;;;;;;;15.96;100.00;101439.41;5220712;28;20394;-72
2023/05/07 02:04:47;;;;;;;11.15;10.07;;;;;;;15.94;100.00;101441.34;5240245;28;20033;-72
2023/05/07 02:07:19;;;;;;;11.88;10.18;;;;;;;15.91;100.00;101432.91;5240832;28;20033;-72
2023/05/07 02:09:50;;;;;;;10.65;9.60;;;;;;;15.84;100.00;101434.50;5239788;28;20394;-72
2023/05/07 02:12:22;;;;;;;11.65;10.43;;;;;;;15.90;100.00;101431.25;5237003;28;20034;-72
2023/05/07 02:14:54;;;;;;;11.10;10.00;;;;;;;15.92;100.00;101443.34;5230365;28;20557;-72
2023/05/07 02:17:25;;;;;;;12.98;10.25;;;;;;;15.86;100.00;101443.09;5217878;28;20083;-72
2023/05/07 02:19:57;;;;;;;12.07;10.77;;;;;;;15.86;100.00;101441.28;5233376;28;20037;-72
2023/05/07 02:22:28;;;;;;;11.65;10.40;;;;;;;15.88;100.00;101447.25;5239675;28;20083;-73
2023/05/07 02:24:59;;;;;;;12.38;11.20;;;;;;;15.92;100.00;101445.16;5239920;28;20020;-72
2023/05/07 02:27:31;;;;;;;12.43;11.18;;;;;;;15.91;100.00;101452.25;5234074;28;20056;-72
2023/05/07 02:30:02;;;;;;;11.57;10.38;;;;;;;15.88;100.00;101452.56;5237424;28;20430;-72
2023/05/07 02:32:34;;;;;;;11.93;10.73;;;;;;;15.87;100.00;101448.22;5237832;28;20725;-72
2023/05/07 02:35:05;;;;;;;12.00;10.88;;;;;;;16.02;100.00;101451.19;5236240;28;20091;-72
2023/05/07 02:37:37;;;;;;;11.05;10.02;;;;;;;15.90;100.00;101455.03;5237343;28;20025;-72
2023/05/07 02:40:09;;;;;;;12.82;10.93;;;;;;;15.93;100.00;101452.91;5237898;28;20026;-72
2023/05/07 02:42:40;;;;;;;12.15;11.05;;;;;;;15.70;100.00;101451.69;5240310;28;20483;-72
2023/05/07 02:45:11;;;;;;;13.05;11.85;;;;;;;15.80;100.00;101450.66;5235611;28;20091;-72
2023/05/07 02:47:42;;;;;;;12.40;11.20;;;;;;;15.72;100.00;101455.84;5217134;28;20056;-72
2023/05/07 02:50:14;;;;;;;13.38;11.98;;;;;;;15.66;100.00;101456.44;5217953;28;20128;-72
2023/05/07 02:52:47;;;;;;;13.25;11.85;;;;;;;15.64;100.00;101455.72;5236886;28;20029;-72
2023/05/07 02:55:18;;;;;;;11.52;10.50;;;;;;;15.68;100.00;101464.19;5235515;28;20033;-72
2023/05/07 02:57:49;;;;;;;12.60;11.32;;;;;;;15.75;100.00;101458.19;5221330;28;20383;-72
2023/05/07 03:00:21;;;;;;;12.90;11.73;;;;;;;15.69;100.00;101456.16;5236374;28;20029;-72
2023/05/07 03:02:52;;;;;;;12.27;11.07;;;;;;;15.71;100.00;101450.72;5237111;28;20524;-72
2023/05/07 03:05:24;;;;;;;14.55;13.00;;;;;;;15.66;100.00;101450.34;5238534;28;20116;-72
2023/05/07 03:07:55;;;;;;;14.68;13.23;;;;;;;15.75;100.00;101452.06;5236295;28;20116;-71
2023/05/07 03:10:26;;;;;;;14.52;13.02;;;;;;;15.71;100.00;101446.25;5234195;28;20056;-72
2023/05/07 03:12:58;;;;;;;13.65;12.25;;;;;;;15.68;100.00;101440.44;5240280;28;20044;-72
2023/05/07 03:15:29;;;;;;;13.70;12.30;;;;;;;15.68;100.00;101445.72;5235099;28;20474;-72
2023/05/07 03:18:00;;;;;;;14.38;13.07;;;;;;;15.68;100.00;101446.56;5234127;28;20035;-72
2023/05/07 03:20:32;;;;;;;15.15;13.73;;;;;;;15.67;100.00;101450.16;5238826;28;20279;-72
2023/05/07 03:23:03;;;;;;;14.57;13.18;;;;;;;15.68;100.00;101440.44;5237911;28;20037;-72
2023/05/07 03:25:34;;;;;;;16.23;14.57;;;;;;;15.72;100.00;101442.66;5240426;28;20036;-72
2023/05/07 03:28:06;;;;;;;15.65;14.20;;;;;;;15.69;100.00;101440.31;5236621;28;20092;-72
2023/05/07 03:30:37;;;;;;;16.38;14.68;;;;;;;15.72;100.00;101428.59;5234652;28;20378;-72
2023/05/07 03:33:08;;;;;;;16.50;15.00;;;;;;;15.76;100.00;101433.44;5237687;28;20052;-71
2023/05/07 03:35:40;;;;;;;16.73;15.13;;;;;;;15.79;100.00;101435.75;5236697;28;20021;-73
2023/05/07 03:38:11;;;;;;;16.17;14.70;;;;;;;15.74;100.00;101431.91;5232909;28;20324;-72
2023/05/07 03:40:42;;;;;;;17.08;15.27;;;;;;;15.75;100.00;101430.94;5230437;28;20069;-72
2023/05/07 03:43:13;;;;;;;17.05;14.98;;;;;;;15.79;100.00;101434.94;5240105;28;21990;-72
2023/05/07 03:45:45;;;;;;;16.88;15.35;;;;;;;15.75;100.00;101426.47;5232897;28;20564;-72
2023/05/07 03:48:16;;;;;;;17.55;15.90;;;;;;;15.79;100.00;101432.28;5236214;28;20021;-72
2023/05/07 03:50:47;;;;;;;18.00;16.38;;;;;;;15.79;100.00;101437.56;5235945;28;20395;-72
2023/05/07 03:53:19;;;;;;;18.05;16.27;;;;;;;15.81;100.00;101433.81;5239102;28;20029;-72
2023/05/07 03:55:50;;;;;;;17.48;15.85;;;;;;;15.78;100.00;101434.09;5220831;28;21100;-72
2023/05/07 03:58:21;;;;;;;17.85;16.05;;;;;;;15.81;100.00;101436.47;5235489;28;20033;-72
2023/05/07 04:00:53;;;;;;;16.85;15.38;;;;;;;15.85;100.00;101444.09;5232815;28;20082;-72
2023/05/07 04:03:24;;;;;;;16.25;14.85;;;;;;;15.81;100.00;101441.75;5237415;28;20124;-72
2023/05/07 04:05:55;;;;;;;16.50;15.00;;;;;;;15.79;100.00;101440.22;5234601;28;20036;-72
2023/05/07 04:08:26;;;;;;;17.88;16.25;;;;;;;15.79;100.00;101459.53;5236770;28;20879;-72
2023/05/07 04:10:58;;;;;;;16.27;14.77;;;;;;;15.73;100.00;101457.50;5217351;28;20107;-72
2023/05/07 04:13:30;;;;;;;17.23;15.68;;;;;;;15.71;100.00;101470.03;5234642;28;20025;-72
2023/05/07 04:16:03;;;;;;;16.58;15.00;;;;;;;15.73;100.00;101456.69;5233135;28;20056;-72
2023/05/07 04:18:34;;;;;;;;;;;;;;;16.47;100.00;101458.19;5238058;28;20474;-72
2023/05/07 04:21:13;;;;;;;16.00;14.40;;;;;;;15.79;100.00;101456.06;5236740;28;20110;-72
2023/05/07 04:23:45;;;;;;;17.50;15.85;;;;;;;15.73;100.00;101454.03;5239238;28;20033;-72
2023/05/07 04:26:16;;;;;;;18.67;16.77;;;;;;;15.88;100.00;101462.28;5235238;28;20029;-72
2023/05/07 04:28:48;;;;;;;18.95;17.05;;;;;;;15.89;100.00;101464.78;5233266;28;20029;-72
2023/05/07 04:31:19;;;;;;;17.27;15.68;;;;;;;15.85;100.00;101462.59;5234484;28;20029;-72
2023/05/07 04:33:51;;;;;;;18.58;16.88;;;;;;;15.86;100.00;101454.50;5237663;28;20541;-72
2023/05/07 04:36:22;;;;;;;19.02;17.17;;;;;;;15.79;100.00;101464.81;5236254;28;20479;-72
2023/05/07 04:38:54;;;;;;;18.77;16.98;;;;;;;15.81;100.00;101454.13;5234185;28;20560;-72
2023/05/07 04:41:25;;;;;;;19.75;17.90;;;;;;;15.85;100.00;101459.94;5231885;28;20037;-72
2023/05/07 04:43:58;;;;;;;19.33;17.52;;;;;;;15.84;100.00;101460.94;5237693;28;20030;-72
2023/05/07 04:46:30;;;;;;;;;;;;;;;16.57;100.00;101463.38;5229244;28;20102;-73
2023/05/07 04:49:01;;;;;;;17.95;16.15;;;;;;;15.90;100.00;101461.16;5232818;28;19921;-72
2023/05/07 04:51:33;;;;;;;19.80;17.77;;;;;;;15.90;100.00;101470.88;5238317;28;20081;-72
2023/05/07 04:54:04;;;;;;;20.50;18.40;;;;;;;15.90;100.00;101469.06;5217534;28;20629;-73
2023/05/07 04:56:35;;;;;;;19.17;17.27;;;;;;;15.88;100.00;101475.50;5236581;28;20029;-72
2023/05/07 04:59:07;;;;;;;21.25;19.20;;;;;;;15.86;100.00;101474.81;5232258;28;20029;-72
2023/05/07 05:01:38;;;;;;;19.90;18.08;;;;;;;15.90;100.00;101478.81;5232018;28;20378;-72
2023/05/07 05:04:10;;;;;;;20.77;18.77;;;;;;;15.94;100.00;101473.06;5232919;28;20064;-72
2023/05/07 05:06:41;;;;;;;20.60;18.73;;;;;;;15.92;100.00;101479.50;5230619;28;20033;-72
2023/05/07 05:09:12;;;;;;;19.67;17.90;;;;;;;15.99;100.00;101478.75;5233128;28;20068;-72
2023/05/07 05:11:44;;;;;;;20.50;18.55;;;;;;;16.02;100.00;101480.25;5233749;28;20065;-72
2023/05/07 05:14:15;;;;;;;20.88;18.83;;;;;;;16.04;100.00;101478.31;5235579;28;21221;-72
2023/05/07 05:16:46;;;;;;;19.55;17.77;;;;;;;16.16;100.00;101477.09;5233621;28;20057;-72
2023/05/07 05:19:18;;;;;;;21.50;19.45;;;;;;;16.12;100.00;101478.38;5218070;28;20037;-72
2023/05/07 05:21:49;;;;;;;21.30;19.35;;;;;;;16.14;100.00;101483.50;5232778;28;20132;-72
2023/05/07 05:24:21;;;;;;;22.10;19.88;;;;;;;16.10;100.00;101472.44;5238440;28;20025;-72
2023/05/07 05:26:55;;;;;;;23.17;21.05;;;;;;;16.26;100.00;101485.78;5231417;28;20482;-72
2023/05/07 05:29:26;;;;;;;22.27;20.15;;;;;;;16.16;100.00;101477.09;5233109;28;20040;-72
2023/05/07 05:31:57;;;;;;;23.52;21.33;;;;;;;16.23;100.00;101490.53;5234948;28;20033;-72
2023/05/07 05:34:29;;;;;;;21.45;19.65;;;;;;;16.29;100.00;101495.25;5232311;28;20029;-72
2023/05/07 05:37:00;;;;;;;22.50;20.30;;;;;;;16.33;100.00;101496.59;5233878;28;20063;-72
2023/05/07 05:39:32;;;;;;;21.55;19.50;;;;;;;16.34;100.00;101492.97;5231773;28;20123;-72
2023/05/07 05:42:03;;;;;;;23.08;20.90;;;;;;;16.40;100.00;101496.78;5215383;28;20029;-72
2023/05/07 05:44:34;;;;;;;21.45;19.63;;;;;;;16.38;100.00;101494.31;5237719;28;20026;-73
2023/05/07 05:47:06;;;;;;;21.77;19.60;;;;;;;16.44;100.00;101503.44;5234410;28;20080;-72
2023/05/07 05:49:37;;;;;;;21.38;19.25;;;;;;;16.50;100.00;101510.78;5231446;28;20033;-72
2023/05/07 05:52:09;;;;;;;22.15;19.95;;;;;;;16.51;100.00;101510.63;5227016;28;20035;-72
2023/05/07 05:54:40;;;;;;;21.83;19.60;;;;;;;16.59;100.00;101504.56;5235362;28;20874;-72
2023/05/07 05:57:11;;;;;;;20.58;18.88;;;;;;;16.51;100.00;101502.69;5215123;28;20128;-72
2023/05/07 05:59:44;;;;;;;21.55;19.63;;;;;;;16.60;100.00;101500.94;5236171;28;20033;-72
2023/05/07 06:02:15;;;;;;;20.57;18.57;;;;;;;16.63;100.00;101505.09;5235588;28;20029;-72
2023/05/07 06:04:46;;;;;;;20.83;18.83;;;;;;;16.72;100.00;101505.00;5239284;28;20047;-72
2023/05/07 06:07:17;;;;;;;19.05;17.30;;;;;;;16.78;100.00;101500.94;5234048;28;20115;-72
2023/05/07 06:09:49;;;;;;;18.95;17.05;;;;;;;16.77;100.00;101497.44;5234963;28;20069;-73
2023/05/07 06:12:21;;;;;;;20.23;18.33;;;;;;;16.79;100.00;101502.63;5239932;28;20106;-72
2023/05/07 06:14:52;;;;;;;19.90;18.10;;;;;;;16.76;100.00;101506.38;5236202;28;20029;-72
2023/05/07 06:17:23;;;;;;;18.55;16.88;;;;;;;16.85;100.00;101499.31;5236814;28;20029;-72
2023/05/07 06:19:54;;;;;;;19.15;17.45;;;;;;;16.85;100.00;101503.78;5234903;28;20056;-72
2023/05/07 06:22:26;;;;;;;20.35;18.35;;;;;;;16.98;100.00;101507.69;5234549;28;20124;-72
2023/05/07 06:24:57;;;;;;;18.05;16.45;;;;;;;17.01;100.00;101509.22;5239144;28;20067;-72
2023/05/07 06:27:28;;;;;;;19.13;17.33;;;;;;;17.15;100.00;101502.50;5236227;28;20029;-72
2023/05/07 06:30:00;;;;;;;18.48;16.77;;;;;;;17.22;100.00;101499.06;5236625;28;20028;-72
2023/05/07 06:32:31;;;;;;;18.65;16.92;;;;;;;17.17;100.00;101497.88;5236972;28;20103;-72
2023/05/07 06:35:02;;;;;;;17.95;16.25;;;;;;;17.19;100.00;101501.19;5231896;28;20454;-72
2023/05/07 06:37:34;;;;;;;18.48;16.63;;;;;;;17.35;100.00;101508.38;5219391;28;20123;-72
2023/05/07 06:40:06;;;;;;;17.80;15.93;;;;;;;17.34;100.00;101501.44;5234760;28;20029;-72
2023/05/07 06:42:38;;;;;;;17.33;15.73;;;;;;;17.40;100.00;101496.34;5215042;28;20068;-72
2023/05/07 06:45:10;;;;;;;18.40;16.75;;;;;;;17.49;100.00;101510.44;5234614;28;20112;-72
2023/05/07 06:47:41;;;;;;;17.63;15.82;;;;;;;17.51;100.00;101513.78;5232332;28;20427;-72
2023/05/07 06:50:12;;;;;;;17.35;15.75;;;;;;;17.52;100.00;101523.38;5235200;28;20632;-72
2023/05/07 06:52:43;;;;;;;16.67;15.13;;;;;;;17.56;100.00;101522.06;5236806;28;20493;-72
2023/05/07 06:55:15;;;;;;;17.08;15.48;;;;;;;17.62;100.00;101524.09;5236971;28;20036;-72
2023/05/07 06:57:46;;;;;;;16.95;15.15;;;;;;;17.66;100.00;101528.09;5233070;28;20030;-72
2023/05/07 07:00:18;;;;;;;15.75;14.25;;;;;;;17.54;100.00;101521.41;5236306;28;20509;-72
2023/05/07 07:02:49;;;;;;;16.17;14.60;;;;;;;17.55;100.00;101532.84;5220636;28;20025;-72
2023/05/07 07:05:20;;;;;;;16.33;14.65;;;;;;;17.57;100.00;101531.66;5238324;28;20032;-73
2023/05/07 07:07:54;;;;;;;16.33;14.75;;;;;;;17.55;100.00;101524.88;5233705;28;20056;-72
2023/05/07 07:10:26;;;;;;;16.00;14.30;;;;;;;17.55;100.00;101524.88;5234790;28;20021;-72
2023/05/07 07:12:57;;;;;;;16.33;14.53;;;;;;;17.67;100.00;101528.91;5233105;28;20040;-72
2023/05/07 07:15:28;;;;;;;15.73;14.13;;;;;;;17.67;100.00;101523.59;5215716;28;20314;-72
2023/05/07 07:18:00;;;;;;;15.25;13.85;;;;;;;17.73;100.00;101523.81;5236605;28;20036;-73
2023/05/07 07:20:31;;;;;;;15.70;14.25;;;;;;;17.72;100.00;101534.53;5234540;28;20787;-72
2023/05/07 07:23:02;;;;;;;15.40;13.90;;;;;;;17.68;100.00;101528.72;5238569;28;20445;-73
2023/05/07 07:25:34;;;;;;;14.77;13.38;;;;;;;17.72;100.00;101532.72;5226889;28;20115;-73
2023/05/07 07:28:06;;;;;;;15.50;14.05;;;;;;;17.72;100.00;101531.91;5233397;28;20021;-73
2023/05/07 07:30:37;;;;;;;14.73;13.32;;;;;;;17.81;100.00;101533.63;5234586;28;20041;-72
2023/05/07 07:33:09;;;;;;;14.65;13.35;;;;;;;17.82;100.00;101542.41;5237038;28;20037;-73
2023/05/07 07:35:40;;;;;;;15.45;13.95;;;;;;;17.95;100.00;101533.00;5234987;28;20029;-73
2023/05/07 07:38:11;;;;;;;15.20;13.80;;;;;;;18.05;100.00;101547.94;5235078;28;20032;-72
2023/05/07 07:40:44;;;;;;;14.40;12.98;;;;;;;18.08;100.00;101543.16;5229797;28;20758;-72
2023/05/07 07:43:15;;;;;;;14.90;13.37;;;;;;;18.12;100.00;101548.97;5237064;28;20513;-72
2023/05/07 07:45:46;;;;;;;15.77;13.32;;;;;;;18.17;100.00;101544.81;5214266;28;20021;-72
2023/05/07 07:48:17;;;;;;;14.65;13.18;;;;;;;18.16;100.00;101543.16;5231968;28;20174;-72
2023/05/07 07:50:51;;;;;;;17.48;13.38;;;;;;;18.36;100.00;101545.50;5232751;28;20025;-72
2023/05/07 07:53:22;;;;;;;14.77;13.38;;;;;;;18.43;100.00;101544.69;5234809;28;20513;-72
2023/05/07 07:55:53;;;;;;;14.77;13.25;;;;;;;18.55;100.00;101547.84;5234899;28;20115;-72
2023/05/07 07:58:24;;;;;;;14.32;12.95;;;;;;;18.57;100.00;101537.91;5236162;28;20432;-72
2023/05/07 08:00:56;;;;;;;14.57;13.17;;;;;;;18.72;100.00;101543.41;5216212;28;20040;-72
2023/05/07 08:03:28;;;;;;;14.87;13.30;;;;;;;18.76;100.00;101539.44;5236257;28;20029;-72
2023/05/07 08:05:59;;;;;;;13.93;12.53;;;;;;;18.82;100.00;101532.63;5227486;28;20115;-72
2023/05/07 08:08:30;;;;;;;13.73;12.40;;;;;;;18.95;100.00;101548.88;5235939;28;20079;-72
2023/05/07 08:11:02;;;;;;;13.63;12.35;;;;;;;18.93;100.00;101542.91;5229214;28;20078;-72
2023/05/07 08:13:33;;;;;;;12.90;11.70;;;;;;;18.91;100.00;101547.56;5231030;28;20026;-72
2023/05/07 08:16:04;;;;;;;11.93;10.83;;;;;;;19.12;100.00;101555.81;5234566;28;20068;-71
2023/05/07 08:18:36;;;;;;;14.60;11.73;;;;;;;19.15;100.00;101552.81;5235908;28;20741;-72
2023/05/07 08:21:07;;;;;;;12.98;11.75;;;;;;;19.18;100.00;101551.66;5231294;28;20033;-72
2023/05/07 08:23:38;;;;;;;15.40;13.23;;;;;;;19.28;100.00;101552.31;5208762;28;20506;-72
2023/05/07 08:26:10;;;;;;;14.23;12.85;;;;;;;19.41;100.00;101552.59;5213503;28;20091;-72
2023/05/07 08:28:41;;;;;;;13.95;12.57;;;;;;;19.36;100.00;101548.81;5212703;28;20438;-72
2023/05/07 08:31:12;;;;;;;14.07;12.77;;;;;;;19.52;100.00;101546.09;5211834;28;20032;-72
2023/05/07 08:33:43;;;;;;;13.70;12.40;;;;;;;19.62;100.00;101548.56;5232806;28;20072;-72
2023/05/07 08:36:15;;;;;;;14.20;12.93;;;;;;;19.59;100.00;101557.69;5233389;28;20033;-71
2023/05/07 08:38:46;;;;;;;13.80;12.50;;;;;;;19.60;100.00;101554.03;5233695;28;20122;-72
2023/05/07 08:41:18;;;;;;;15.37;12.73;;;;;;;19.68;100.00;101554.03;5233995;28;20360;-72
2023/05/07 08:43:50;;;;;;;13.03;11.83;;;;;;;19.75;100.00;101564.81;5234726;28;20108;-72
2023/05/07 08:46:22;;;;;;;12.93;11.63;;;;;;;19.87;100.00;101565.25;5233478;28;20060;-71
2023/05/07 08:48:53;;;;;;;13.43;11.60;;;;;;;19.84;100.00;101565.59;5233735;28;20288;-72
2023/05/07 08:51:24;;;;;;;13.80;12.30;;;;;;;19.91;100.00;101567.38;5236144;28;20120;-72
2023/05/07 08:53:56;;;;;;;12.20;11.00;;;;;;;19.94;100.00;101568.88;5234529;28;20039;-72
2023/05/07 08:56:27;;;;;;;13.60;12.30;;;;;;;19.98;100.00;101564.84;5236559;28;20063;-72
2023/05/07 08:58:58;;;;;;;13.97;12.73;;;;;;;20.11;100.00;101572.25;5216668;28;20021;-72
2023/05/07 09:01:29;;;;;;;14.10;12.90;;;;;;;20.08;100.00;101567.31;5238833;28;20435;-72
2023/05/07 09:04:01;;;;;;;13.40;12.07;;;;;;;20.15;100.00;101573.56;5235492;28;20025;-72
2023/05/07 09:06:33;;;;;;;14.67;12.53;;;;;;;20.15;100.00;101576.22;5236706;28;20487;-72
2023/05/07 09:09:05;;;;;;;14.85;13.35;;;;;;;20.25;100.00;101568.84;5234092;28;20521;-72
2023/05/07 09:11:36;;;;;;;14.10;12.83;;;;;;;20.25;100.00;101579.50;5231331;28;20029;-72
2023/05/07 09:14:08;;;;;;;14.43;13.13;;;;;;;20.41;100.00;101575.91;5237670;28;20052;-72
2023/05/07 09:16:39;;;;;;;14.13;12.83;;;;;;;20.49;100.00;101573.19;5236244;28;20045;-72
2023/05/07 09:19:11;;;;;;;14.10;12.77;;;;;;;20.60;100.00;101571.97;5234295;28;20041;-72
2023/05/07 09:21:42;;;;;;;13.93;12.57;;;;;;;20.69;100.00;101570.91;5234284;28;20039;-72
2023/05/07 09:24:15;;;;;;;14.37;12.90;;;;;;;20.54;100.00;101576.19;5233029;28;20041;-72
2023/05/07 09:26:46;;;;;;;13.57;12.35;;;;;;;20.70;100.00;101577.88;5233523;28;20488;-72
2023/05/07 09:29:18;;;;;;;14.47;12.87;;;;;;;20.69;100.00;101580.75;5237803;28;20018;-72
2023/05/07 09:31:49;;;;;;;14.23;12.87;;;;;;;20.83;100.00;101571.94;5233055;28;20477;-72
2023/05/07 09:34:20;;;;;;;14.57;13.33;;;;;;;20.95;100.00;101575.00;5234160;28;20398;-72
2023/05/07 09:36:53;;;;;;;13.70;12.50;;;;;;;20.84;100.00;101577.09;5234274;28;20575;-71
2023/05/07 09:39:25;;;;;;;14.75;13.35;;;;;;;20.89;100.00;101576.56;5234157;28;20026;-71
2023/05/07 09:41:58;;;;;;;14.07;12.73;;;;;;;21.05;100.00;101581.72;5234309;28;20041;-72
2023/05/07 09:44:31;;;;;;;13.55;12.35;;;;;;;21.08;100.00;101576.03;5238866;28;20383;-71
2023/05/07 09:47:07;;;;;;;14.63;13.32;;;;;;;21.05;100.00;101583.56;5236622;28;20049;-71
2023/05/07 09:49:39;;;;;;;14.30;12.90;;;;;;;21.16;100.00;101579.63;5241062;28;20021;-72
2023/05/07 09:52:13;;;;;;;15.73;14.10;;;;;;;21.08;100.00;101584.03;5232315;28;20094;-71
2023/05/07 09:54:45;;;;;;;13.93;12.55;;;;;;;21.03;100.00;101583.75;5217729;28;20028;-71
2023/05/07 09:57:18;;;;;;;14.57;13.15;;;;;;;21.10;100.00;101584.69;5239365;28;20024;-71
2023/05/07 09:59:52;;;;;;;15.30;13.90;;;;;;;21.08;100.00;101592.03;5237241;28;20102;-71
2023/05/07 10:02:28;;;;;;;14.05;12.70;;;;;;;21.20;100.00;101583.59;5235617;28;20335;-71
2023/05/07 10:05:01;;;;;;;14.45;12.05;;;;;;;21.29;100.00;101579.81;5238143;28;20534;-72
2023/05/07 10:07:32;;;;;;;;;;;;;;;22.01;100.00;101574.69;5237299;28;20183;-72
2023/05/07 10:10:05;;;;;;;12.38;11.13;;;;;;;21.32;100.00;101590.94;5240101;28;20174;-72
2023/05/07 10:12:38;;;;;;;13.02;11.77;;;;;;;21.28;100.00;101579.00;5235564;28;20041;-72
2023/05/07 10:15:11;;;;;;;13.52;12.25;;;;;;;21.28;100.00;101583.50;5237388;28;20090;-72
2023/05/07 10:17:42;;;;;;;;;;;;;;;22.17;100.00;101581.66;5242239;28;20031;-72
2023/05/07 10:20:14;;;;;;;13.97;12.60;;;;;;;21.47;100.00;101574.16;5238246;28;20461;-71
2023/05/07 10:22:48;;;;;;;14.73;13.03;;;;;;;21.67;100.00;101585.09;5233762;28;20039;-71
2023/05/07 10:25:28;;;;;;;14.10;12.75;;;;;;;21.76;100.00;101587.50;5235763;28;20475;-71
2023/05/07 10:28:07;;;;;;;13.50;12.18;;;;;;;21.93;100.00;101580.09;5236964;28;20051;-71
2023/05/07 10:30:47;;;;;;;12.85;11.65;;;;;;;22.02;100.00;101586.16;5219329;28;20044;-72
2023/05/07 10:33:23;;;;;;;13.82;11.18;;;;;;;22.21;100.00;101582.94;5239236;28;20108;-71
2023/05/07 10:36:01;;;;;;;12.15;11.05;;;;;;;22.32;100.00;101581.63;5236887;28;20265;-72
2023/05/07 10:38:32;;;;;;;11.48;10.23;;;;;;;22.24;100.00;101582.56;5239047;28;20032;-71
2023/05/07 10:41:05;;;;;;;12.10;10.77;;;;;;;22.34;100.00;101584.91;5235474;28;20447;-72
2023/05/07 10:43:41;;;;;;;12.73;11.50;;;;;;;22.41;100.00;101587.66;5237453;28;20025;-71
2023/05/07 10:46:20;;;;;;;11.93;10.77;;;;;;;22.48;100.00;101583.19;5232790;28;20652;-71
2023/05/07 10:49:05;;;;;;;11.30;10.23;;;;;;;22.50;100.00;101576.66;5232035;28;20028;-71
2023/05/07 10:51:38;;;;;;;12.27;11.02;;;;;;;22.47;100.00;101579.72;5236498;28;20485;-72
2023/05/07 10:54:09;;;;;;;12.40;11.20;;;;;;;22.60;100.00;101581.66;5236609;28;20389;-72
2023/05/07 10:56:47;;;;;;;22.47;11.83;;;;;;;22.74;100.00;101588.78;5235264;28;20036;-71
2023/05/07 10:59:26;;;;;;;10.68;9.57;;;;;;;22.80;100.00;101579.16;5234159;28;20040;-72
2023/05/07 11:02:03;;;;;;;10.23;9.20;;;;;;;23.00;100.00;101593.56;5237087;28;20044;-72
2023/05/07 11:04:35;;;;;;;10.02;9.20;;;;;;;22.81;100.00;101589.69;5238343;28;20021;-72
2023/05/07 11:07:06;;;;;;;10.17;9.10;;;;;;;22.94;100.00;101594.31;5234018;28;20048;-72
2023/05/07 11:09:53;;;;;;;10.03;9.03;;;;;;;23.24;100.00;101588.78;5237090;28;20057;-72
2023/05/07 11:12:36;;;;;;;11.20;10.15;;;;;;;23.23;100.00;101592.50;5234123;28;20033;-72
2023/05/07 11:15:09;;;;;;;10.90;9.80;;;;;;;22.97;100.00;101591.28;5238883;28;20036;-72
2023/05/07 11:17:55;;;;;;;11.82;10.60;;;;;;;23.34;100.00;101591.13;5236603;28;20134;-72
2023/05/07 11:20:48;;;;;;;10.27;9.27;;;;;;;23.57;100.00;101586.31;5233698;28;20036;-72
2023/05/07 11:23:35;;;;;;;10.98;8.88;;;;;;;23.60;100.00;101587.75;5239618;28;20021;-73
2023/05/07 11:26:08;;;;;;;10.05;9.15;;;;;;;23.51;100.00;101587.09;5233040;28;20048;-72
2023/05/07 11:28:41;;;;;;;9.88;8.98;;;;;;;23.37;99.23;101588.84;5221964;28;20382;-72